< < Back
Terminal Aerodrome Forecast


Current Version              Previous Versions:   1  2  3  4  5  6  7  8  9  

Terminal Aerodrome Forecast

703
FTUS44 KBMX 281720
TAFANB
TAF
KANB 281720Z 2818/2918 33007KT P6SM BKN070
     FM290200 00000KT P6SM FEW050=

Latest METAR

077
SAUS70 KWBC 281800 RRF
MTRANB
METAR KANB 281753Z AUTO 30008KT 10SM CLR 09/M08 A3023 RMK AO2 SLP244
T00891078 10089 20022 51005


USA.gov is the U.S. government's official web portal to all federal, state and local government web resources and services.